Smithton, PA

8:52 PM EST on December 08, 2016 (GMT -0500)
Rostraver Township | | Change Station

Elev 994 ft 40.15 °N, 79.79 °W | Updated 20 seconds ago

Overcast
Overcast
25.9 °F
Feels Like 18 °F
N
6.9
Wind Variable Wind from WSW
Gusts 12.5 mph

Today
High -- | Low -- °F
--% Chance of Precip.
Yesterday
High -- | Low -- °F
Precip. -- in
Pressure 30.26 in
Visibility 9.0 miles
Clouds Few 2900 ft
Overcast 3700 ft
Windchill 18 °F
Dew Point 9 °F
Humidity 49%
Rainfall 0.00 in
Snow Depth Not available.
7:29 AM 4:53 PM
Waxing Gibbous, 69% visible
METAR KAGC 090053Z 27016G23KT 9SM FEW029 OVC037 M04/M11 A3020 RMK AO2 PK WND 28026/0041 SNB40E51 SLP246 P0000 T10441111
Pressure 30.26 in
Visibility 9.0 miles
Clouds Few 2900 ft
Overcast 3700 ft
Windchill 18 °F
Dew Point 9 °F
Humidity 49%
Rainfall 0.00 in
Snow Depth Not available.
7:29 AM 4:53 PM
Waxing Gibbous, 69% visible
METAR KAGC 090053Z 27016G23KT 9SM FEW029 OVC037 M04/M11 A3020 RMK AO2 PK WND 28026/0041 SNB40E51 SLP246 P0000 T10441111

10-Day Weather Forecast

Almanac

Astronomy

Dec. 08, 2016 Rise Set
Actual Time
Civil Twilight
Nautical Twilight
Astronomical Twilight
Moon
Length of Visible Light
Length of Day
Tomorrow will be .
, % of the Moon is Illuminated

Today's Extremes

State Highs State Lows

Community

WunderPhotos

Upload Photos

1,956,277 photos uploaded!

WunderBlog® & News

Nearby

Air Quality

  Air Quality AQ Index Pollutant
Not available.

Snow Depth

Station Depth Elevation

Earthquake Activity

City Distance Mag. Time & Date
Minimum magnitude displayed is 2.5.

Coastal Water Temperatures

Place Temperature

Stations

Nearby Weather Stations

Station Location Temp. Windchill Dew Point Humidity Wind Precip. Elev Updated Type
                   

Watches & Warnings

There are currently no watches in effect.